Aérodrome :







RETROUVEZ-NOUS SUR...

 
LOGIN :

S'inscrire | Disclaimer

   EN    FR    IT 

 









Légende :    VFR   VFR Marginal   IFR   IFR Intensif   IFR Très Intensif
Visi : 
Plafond : 
>= 8 km
>= 3000ft
5 à 8 km
1000 à 3000 ft
1500m à 5 km
500 à 1000 ft
800 à 1500m
200 à 500 ft
< 800m
< 200 ft
Symboles :   Orages  Brouillard  Fortes neiges  Fortes précipitations  Vent > 20 kt






- Altitude de l'aérodrome : 1808 ft
- Code IATA : YWK


CYWK - Wabush

DERNIER METAR :
  • 071800Z 21013KT 170V230 15SM FEW070 BKN100 BKN260 23/08 A2994 RMK CU2AC3CI2 SLP147 DENSITY ALT 3200FT

METARs EXPIRÉS :
  • 071700Z 20011G17KT 15SM SCT065 BKN110 23/08 A2996 RMK CU3AC3 SLP154 DENSITY ALT 3100FT
  • 071600Z 22014G19KT 170V230 15SM SCT060 BKN100 23/09 A2998 RMK CU3AC4 SLP160 DENSITY ALT 3200FT

TAF TAF CYWK
Valide du 07 à 14h jusqu'au 08 à 02h UTC


071338Z 0714/0802 20010KT P6SM SCT070
TEMPO 0714/0718 P6SM -SHRA BKN070
FM071800 20012G22KT P6SM BKN090
TEMPO 0718/0724 SCT090
FM080000 20012G22KT P6SM -RA OVC080 RMK NXT FCST BY 072000Z
FIR CZUL / Amérique du Nord



MET'MAP, la Météo Aéronautique d'un coup d'oeil ! - Copyright ORBIFLY Décembre 2007 - Disclaimer

ORBIFLY MET'MAP TEAM :

Programmation & Développement : Alexandra Zaïnal
Sur une idée originale de : Baudouin d'Aumeries
Assistance à la programmation : Marc-Olivier Méhu
Soutien technique & logistique : Manuel Goepfert

Contact : metmap@orbifly.com




SOURCES & CREDITS :

   NOAA